Time;durP1;ratioP1;P1;durP2;ratioP2;P2;SDS_P1;SDS_P2;PMS_P1;PMS_P2;Temp;Humidity;BMP_temperature;BMP_pressure;BME280_temperature;BME280_humidity;BME280_pressure;Samples;Min_cycle;Max_cycle;Signal;HPM_P1;HPM_P2
2023/06/26 00:00:07;;;;;;;11.90;7.00;;;22.10;70.50;;;;;;5084345;28;21016;-80
2023/06/26 00:02:35;;;;;;;9.30;6.20;;;22.10;70.50;;;;;;5079156;28;20789;-81
2023/06/26 00:05:05;;;;;;;9.40;6.80;;;22.00;70.50;;;;;;5083582;28;20476;-79
2023/06/26 00:07:34;;;;;;;10.20;7.30;;;21.90;70.50;;;;;;5084986;28;20491;-80
2023/06/26 00:10:03;;;;;;;11.87;7.60;;;21.90;70.50;;;;;;5083457;28;21197;-79
2023/06/26 00:12:32;;;;;;;10.90;7.33;;;21.80;70.50;;;;;;5079726;28;21045;-79
2023/06/26 00:15:00;;;;;;;10.50;7.57;;;21.80;70.50;;;;;;5085652;28;21022;-81
2023/06/26 00:17:28;;;;;;;9.33;7.10;;;21.70;70.60;;;;;;5074259;28;20472;-79
2023/06/26 00:19:56;;;;;;;18.63;7.97;;;21.80;70.70;;;;;;5086923;28;20531;-80
2023/06/26 00:22:24;;;;;;;10.40;7.30;;;21.70;70.70;;;;;;5080804;28;20483;-79
2023/06/26 00:24:53;;;;;;;13.40;7.73;;;21.70;70.70;;;;;;5084097;28;20522;-80
2023/06/26 00:27:21;;;;;;;11.40;7.90;;;21.70;70.70;;;;;;5063405;28;22014;-79
2023/06/26 00:29:50;;;;;;;11.07;6.90;;;21.70;70.70;;;;;;5076750;28;20450;-79
2023/06/26 00:32:18;;;;;;;11.50;7.90;;;21.60;70.70;;;;;;5065238;28;20488;-81
2023/06/26 00:34:47;;;;;;;9.47;7.10;;;21.60;70.80;;;;;;5065451;28;20457;-80
2023/06/26 00:37:16;;;;;;;9.57;6.77;;;21.60;70.80;;;;;;5072110;28;20461;-80
2023/06/26 00:39:44;;;;;;;11.00;7.33;;;21.50;70.80;;;;;;5073715;28;20827;-79
2023/06/26 00:42:14;;;;;;;14.30;7.23;;;21.50;70.80;;;;;;5083858;28;21057;-80
2023/06/26 00:44:42;;;;;;;10.80;7.90;;;21.50;70.80;;;;;;5073486;28;21235;-81
2023/06/26 00:47:11;;;;;;;10.97;7.70;;;21.40;70.70;;;;;;5089282;28;20551;-80
2023/06/26 00:49:39;;;;;;;13.50;7.90;;;21.40;70.70;;;;;;5073562;28;20539;-79
2023/06/26 00:52:08;;;;;;;12.97;7.30;;;21.40;70.80;;;;;;5064798;28;20542;-80
2023/06/26 00:54:36;;;;;;;13.37;7.70;;;21.30;70.80;;;;;;5069191;28;21059;-78
2023/06/26 00:57:05;;;;;;;13.60;7.60;;;21.30;70.80;;;;;;5070643;28;20977;-79
2023/06/26 00:59:36;;;;;;;10.90;7.27;;;21.30;70.80;;;;;;5066407;28;20468;-81
2023/06/26 01:02:05;;;;;;;14.20;8.10;;;21.30;70.90;;;;;;5071462;28;20481;-79
2023/06/26 01:04:57;;;;;;;10.57;7.33;;;21.20;70.90;;;;;;5087437;28;21005;-80
2023/06/26 01:07:26;;;;;;;9.47;6.63;;;21.20;70.90;;;;;;5069464;28;20463;-79
2023/06/26 01:09:54;;;;;;;11.23;7.53;;;21.20;70.90;;;;;;5073684;28;20464;-80
2023/06/26 01:12:23;;;;;;;12.13;8.00;;;21.20;70.90;;;;;;5087030;28;20543;-80
2023/06/26 01:14:52;;;;;;;12.93;8.20;;;21.20;70.90;;;;;;5089706;28;20457;-82
2023/06/26 01:17:21;;;;;;;15.63;8.47;;;21.20;70.80;;;;;;5085353;28;20544;-80
2023/06/26 01:19:50;;;;;;;11.17;7.50;;;21.10;70.80;;;;;;5066393;28;20496;-79
2023/06/26 01:22:26;;;;;;;9.93;7.37;;;21.00;70.80;;;;;;5083376;28;20453;-80
2023/06/26 01:25:04;;;;;;;12.00;7.90;;;21.00;70.90;;;;;;5064222;28;20461;-79
2023/06/26 01:27:35;;;;;;;15.43;8.30;;;20.90;71.00;;;;;;5068055;28;21252;-81
2023/06/26 01:30:05;;;;;;;17.33;6.83;;;20.80;71.20;;;;;;5084356;28;20896;-79
2023/06/26 01:32:36;;;;;;;13.33;7.10;;;20.80;71.30;;;;;;5067635;28;20549;-80
2023/06/26 01:35:07;;;;;;;13.40;8.20;;;20.80;71.30;;;;;;5075633;28;20458;-80
2023/06/26 01:37:35;;;;;;;11.40;7.00;;;20.80;71.40;;;;;;5064455;28;20541;-80
2023/06/26 01:40:07;;;;;;;14.83;8.20;;;20.80;71.40;;;;;;5066140;28;20526;-78
2023/06/26 01:42:37;;;;;;;15.30;8.00;;;20.80;71.40;;;;;;5066819;28;20480;-79
2023/06/26 01:45:12;;;;;;;14.10;8.17;;;20.80;71.30;;;;;;5087024;28;20464;-81
2023/06/26 01:47:44;;;;;;;12.97;7.63;;;20.70;71.20;;;;;;5067798;28;20466;-81
2023/06/26 01:50:17;;;;;;;21.60;8.90;;;20.60;71.20;;;;;;5078594;28;20449;-79
2023/06/26 01:52:59;;;;;;;12.83;8.10;;;20.60;71.30;;;;;;5087686;28;20479;-79
2023/06/26 01:55:35;;;;;;;14.60;8.37;;;20.60;71.30;;;;;;5064803;28;20510;-79
2023/06/26 01:58:05;;;;;;;13.40;8.10;;;20.60;71.30;;;;;;5066741;28;20884;-79
2023/06/26 02:00:35;;;;;;;15.93;8.40;;;20.60;71.40;;;;;;5078595;28;20477;-81
2023/06/26 02:03:04;;;;;;;15.40;8.77;;;20.60;71.40;;;;;;5065407;28;20453;-79
2023/06/26 02:05:33;;;;;;;11.90;7.60;;;20.60;71.40;;;;;;5085209;28;20461;-80
2023/06/26 02:08:02;;;;;;;11.20;7.70;;;20.60;71.30;;;;;;5085926;28;20449;-80
2023/06/26 02:10:31;;;;;;;13.60;7.70;;;20.50;71.30;;;;;;5070413;28;20445;-79
2023/06/26 02:13:00;;;;;;;15.40;7.60;;;20.50;71.50;;;;;;5072858;28;20530;-80
2023/06/26 02:15:29;;;;;;;13.80;8.07;;;20.40;71.50;;;;;;5085806;28;20825;-80
2023/06/26 02:17:57;;;;;;;17.13;8.23;;;20.50;71.50;;;;;;5070007;28;20552;-80
2023/06/26 02:20:27;;;;;;;13.13;7.70;;;20.40;71.40;;;;;;5064058;28;20509;-79
2023/06/26 02:22:54;;;;;;;13.70;8.50;;;20.40;71.30;;;;;;5066689;28;20459;-81
2023/06/26 02:25:23;;;;;;;14.23;8.10;;;20.40;71.30;;;;;;5070068;28;20452;-80
2023/06/26 02:27:53;;;;;;;13.70;7.73;;;20.30;71.30;;;;;;5079572;28;20466;-80
2023/06/26 02:30:21;;;;;;;15.03;7.83;;;20.30;71.30;;;;;;5080816;28;20866;-80
2023/06/26 02:32:50;;;;;;;12.00;6.80;;;20.30;71.40;;;;;;5078725;28;21065;-80
2023/06/26 02:35:19;;;;;;;14.43;8.10;;;20.30;71.40;;;;;;5070728;28;20485;-81
2023/06/26 02:37:47;;;;;;;15.07;8.33;;;20.30;71.30;;;;;;5089422;28;20543;-80
2023/06/26 02:40:24;;;;;;;14.57;8.20;;;20.20;71.30;;;;;;5068038;28;20842;-80
2023/06/26 02:42:53;;;;;;;13.73;7.70;;;20.20;71.40;;;;;;5063592;28;20556;-80
2023/06/26 02:45:22;;;;;;;15.63;7.80;;;20.10;71.50;;;;;;5067240;28;20466;-79
2023/06/26 02:47:51;;;;;;;12.63;8.90;;;20.10;71.50;;;;;;5072003;28;20453;-80
2023/06/26 02:50:19;;;;;;;11.33;7.10;;;20.10;71.50;;;;;;5070089;28;20462;-80
2023/06/26 02:53:03;;;;;;;14.90;8.40;;;20.00;71.60;;;;;;5062258;28;20995;-80
2023/06/26 02:55:31;;;;;;;14.20;7.97;;;20.00;71.60;;;;;;5077873;28;20455;-80
2023/06/26 02:58:00;;;;;;;19.47;8.53;;;20.00;71.60;;;;;;5070916;28;21155;-80
2023/06/26 03:00:29;;;;;;;21.43;8.87;;;20.00;71.50;;;;;;5066685;28;21244;-81
2023/06/26 03:03:01;;;;;;;20.33;8.20;;;20.00;71.50;;;;;;5062381;28;20452;-79
2023/06/26 03:05:29;;;;;;;22.57;8.30;;;20.00;71.50;;;;;;5070955;28;20968;-80
2023/06/26 03:07:59;;;;;;;19.83;7.30;;;20.00;71.40;;;;;;5064475;28;20977;-81
2023/06/26 03:10:27;;;;;;;18.00;8.33;;;20.00;71.40;;;;;;5064445;28;20457;-80
2023/06/26 03:12:55;;;;;;;15.50;8.93;;;19.90;71.30;;;;;;5086058;28;20529;-80
2023/06/26 03:15:24;;;;;;;20.93;9.47;;;19.90;71.30;;;;;;5079265;28;20469;-79
2023/06/26 03:17:52;;;;;;;19.40;8.37;;;19.90;71.30;;;;;;5062151;28;20547;-80
2023/06/26 03:20:26;;;;;;;21.20;8.50;;;20.00;71.30;;;;;;5064971;28;20564;-79
2023/06/26 03:22:56;;;;;;;14.23;9.00;;;19.90;71.20;;;;;;5071084;28;20471;-78
2023/06/26 03:25:25;;;;;;;13.47;8.63;;;19.80;71.30;;;;;;5067500;28;20864;-80
2023/06/26 03:28:04;;;;;;;13.57;8.40;;;19.80;71.30;;;;;;5064304;28;20467;-78
2023/06/26 03:30:34;;;;;;;15.20;8.80;;;19.70;71.50;;;;;;5069540;28;20882;-80
2023/06/26 03:33:02;;;;;;;15.63;8.30;;;19.70;71.60;;;;;;5088633;28;21037;-78
2023/06/26 03:35:32;;;;;;;19.90;8.77;;;19.70;71.60;;;;;;5067975;28;20518;-78
2023/06/26 03:38:02;;;;;;;12.00;7.47;;;19.60;71.80;;;;;;5075199;28;20456;-79
2023/06/26 03:40:30;;;;;;;15.37;8.10;;;19.60;71.90;;;;;;5066956;28;20471;-78
2023/06/26 03:42:58;;;;;;;16.23;8.57;;;19.70;71.90;;;;;;5070556;28;20547;-80
2023/06/26 03:45:26;;;;;;;14.60;8.00;;;19.70;71.90;;;;;;5063357;28;20449;-80
2023/06/26 03:47:55;;;;;;;24.50;9.37;;;19.70;71.80;;;;;;5071010;28;20927;-80
2023/06/26 03:50:23;;;;;;;17.93;8.53;;;19.80;71.70;;;;;;5064841;28;20460;-80
2023/06/26 03:52:54;;;;;;;17.70;7.90;;;19.80;71.60;;;;;;5080852;28;20461;-80
2023/06/26 03:55:24;;;;;;;19.47;8.63;;;19.80;71.60;;;;;;5063265;28;20536;-79
2023/06/26 03:57:52;;;;;;;19.70;8.00;;;19.70;71.50;;;;;;5068758;28;20557;-78
2023/06/26 04:00:20;;;;;;;15.73;7.93;;;19.70;71.50;;;;;;5064431;28;20552;-80
2023/06/26 04:02:48;;;;;;;18.07;7.93;;;19.70;71.70;;;;;;5088843;28;20447;-79
2023/06/26 04:05:17;;;;;;;17.97;9.20;;;19.70;71.60;;;;;;5069561;28;20453;-79
2023/06/26 04:07:45;;;;;;;18.90;7.97;;;19.80;71.60;;;;;;5069741;28;20474;-79
2023/06/26 04:10:14;;;;;;;18.73;9.13;;;19.80;71.60;;;;;;5083326;28;20478;-79
2023/06/26 04:12:50;;;;;;;17.37;8.20;;;19.80;71.70;;;;;;5095373;28;20884;-80
2023/06/26 04:15:18;;;;;;;15.60;8.30;;;19.80;71.70;;;;;;5085590;28;20452;-78
2023/06/26 04:17:49;;;;;;;13.10;7.97;;;19.90;71.70;;;;;;5089695;28;20503;-78
2023/06/26 04:20:17;;;;;;;19.33;8.57;;;19.90;71.70;;;;;;5068906;28;20463;-79
2023/06/26 04:22:45;;;;;;;16.80;8.67;;;20.00;71.80;;;;;;5088417;28;20460;-80
2023/06/26 04:25:15;;;;;;;15.23;8.07;;;20.10;71.90;;;;;;5088467;28;20542;-78
2023/06/26 04:27:43;;;;;;;18.47;8.43;;;20.30;71.80;;;;;;5083279;28;20553;-79
2023/06/26 04:30:12;;;;;;;15.70;7.97;;;20.40;71.70;;;;;;5069210;28;20457;-80
2023/06/26 04:32:40;;;;;;;14.17;7.80;;;20.50;71.70;;;;;;5089431;28;20522;-79
2023/06/26 04:35:09;;;;;;;13.80;7.73;;;20.60;71.60;;;;;;5087803;28;20489;-78
2023/06/26 04:37:38;;;;;;;24.13;9.00;;;20.80;71.60;;;;;;5070276;28;20452;-78
2023/06/26 04:40:09;;;;;;;27.63;8.67;;;20.90;71.50;;;;;;5089329;28;20529;-80
2023/06/26 04:42:39;;;;;;;22.70;8.10;;;21.10;71.50;;;;;;5074254;28;20472;-79
2023/06/26 04:45:09;;;;;;;16.83;7.90;;;21.20;71.60;;;;;;5081393;28;20542;-79
2023/06/26 04:47:37;;;;;;;25.33;9.13;;;21.30;71.50;;;;;;5068845;28;20541;-81
2023/06/26 04:50:06;;;;;;;31.27;9.20;;;21.40;71.50;;;;;;5088201;28;20457;-78
2023/06/26 04:52:34;;;;;;;17.40;8.73;;;21.60;71.50;;;;;;5081215;28;20464;-79
2023/06/26 04:55:02;;;;;;;15.07;9.07;;;21.70;71.30;;;;;;5065160;28;20536;-79
2023/06/26 04:57:30;;;;;;;16.57;8.17;;;21.80;71.20;;;;;;5092820;28;20452;-80
2023/06/26 04:59:59;;;;;;;19.33;8.30;;;21.90;71.10;;;;;;5085289;28;20453;-80
2023/06/26 05:02:27;;;;;;;22.67;9.00;;;22.10;70.90;;;;;;5062410;28;20477;-79
2023/06/26 05:04:55;;;;;;;16.33;8.60;;;22.20;70.80;;;;;;5067230;28;20442;-79
2023/06/26 05:07:23;;;;;;;18.77;8.60;;;22.30;70.70;;;;;;5090325;28;20545;-78
2023/06/26 05:09:51;;;;;;;12.33;8.17;;;22.40;70.70;;;;;;5085051;28;20957;-78
2023/06/26 05:12:19;;;;;;;16.80;9.10;;;22.60;70.60;;;;;;5086463;28;20540;-79
2023/06/26 05:14:48;;;;;;;13.60;8.93;;;22.70;70.40;;;;;;5074096;28;20459;-79
2023/06/26 05:17:17;;;;;;;14.37;9.30;;;22.80;70.30;;;;;;5085847;28;20452;-79
2023/06/26 05:19:45;;;;;;;18.60;9.30;;;22.90;70.20;;;;;;5088620;28;20444;-79
2023/06/26 05:22:14;;;;;;;15.23;9.43;;;23.10;70.10;;;;;;5092272;28;20487;-80
2023/06/26 05:24:47;;;;;;;17.33;9.20;;;23.20;70.10;;;;;;5085898;28;20536;-81
2023/06/26 05:27:21;;;;;;;14.37;9.67;;;23.40;70.10;;;;;;5087899;28;20532;-78
2023/06/26 05:29:50;;;;;;;16.07;9.30;;;23.50;70.10;;;;;;5083840;28;20449;-79
2023/06/26 05:32:20;;;;;;;14.23;10.27;;;23.60;70.00;;;;;;5083607;28;20480;-79
2023/06/26 05:34:49;;;;;;;17.93;10.47;;;23.80;69.80;;;;;;5082225;28;20453;-79
2023/06/26 05:37:21;;;;;;;12.77;9.80;;;23.90;69.80;;;;;;5068850;28;20537;-80
2023/06/26 05:39:50;;;;;;;13.60;9.27;;;24.10;69.80;;;;;;5073132;28;20452;-78
2023/06/26 05:42:19;;;;;;;14.67;9.57;;;24.30;70.00;;;;;;5083218;28;20476;-80
2023/06/26 05:44:46;;;;;;;14.80;10.67;;;24.80;69.80;;;;;;5068114;28;20946;-78
2023/06/26 05:47:14;;;;;;;13.80;9.60;;;25.40;68.70;;;;;;5084618;28;20548;-79
2023/06/26 05:49:44;;;;;;;12.37;9.87;;;26.30;66.90;;;;;;5088062;28;20448;-79
2023/06/26 05:52:13;;;;;;;13.33;8.93;;;27.30;65.00;;;;;;5082601;28;20457;-79
2023/06/26 05:54:42;;;;;;;13.80;9.50;;;28.20;63.30;;;;;;5083399;28;20606;-79
2023/06/26 05:57:10;;;;;;;12.30;9.50;;;29.10;62.00;;;;;;5071849;28;20453;-79
2023/06/26 05:59:41;;;;;;;14.50;9.50;;;29.80;60.90;;;;;;5079397;28;20461;-79
2023/06/26 06:02:09;;;;;;;15.83;9.80;;;30.40;59.80;;;;;;5064700;28;20474;-79
2023/06/26 06:04:37;;;;;;;12.63;9.10;;;30.90;58.90;;;;;;5091155;28;20521;-79
2023/06/26 06:07:07;;;;;;;13.13;9.50;;;31.40;58.10;;;;;;5085738;28;20475;-79
2023/06/26 06:09:34;;;;;;;13.10;9.43;;;31.80;57.10;;;;;;5070215;28;20452;-79
2023/06/26 06:12:03;;;;;;;14.00;10.17;;;32.10;56.30;;;;;;5069787;28;20517;-80
2023/06/26 06:14:31;;;;;;;12.17;9.10;;;32.30;55.70;;;;;;5084030;28;21004;-80
2023/06/26 06:16:59;;;;;;;16.97;11.47;;;32.10;55.70;;;;;;5065435;28;20461;-80
2023/06/26 06:19:27;;;;;;;14.00;10.93;;;31.60;55.90;;;;;;5084158;28;20469;-80
2023/06/26 06:21:55;;;;;;;13.07;8.83;;;31.20;56.10;;;;;;5085481;28;20483;-80
2023/06/26 06:24:25;;;;;;;12.43;9.50;;;30.80;56.50;;;;;;5085047;28;20459;-79
2023/06/26 06:26:52;;;;;;;11.87;8.90;;;30.30;56.90;;;;;;5065863;28;20548;-80
2023/06/26 06:29:26;;;;;;;12.40;9.47;;;29.90;57.40;;;;;;5084974;28;20461;-78
2023/06/26 06:31:54;;;;;;;13.40;9.87;;;29.40;57.90;;;;;;5083055;28;21212;-79
2023/06/26 06:34:22;;;;;;;12.50;9.87;;;28.90;58.50;;;;;;5081807;28;20464;-81
2023/06/26 06:37:11;;;;;;;11.43;9.00;;;28.40;58.90;;;;;;5082912;28;20857;-81
2023/06/26 06:39:41;;;;;;;17.67;9.87;;;27.90;59.70;;;;;;5082246;28;20470;-80
2023/06/26 06:42:09;;;;;;;13.57;9.00;;;27.40;60.30;;;;;;5081871;28;20550;-80
2023/06/26 06:44:37;;;;;;;14.57;9.60;;;27.00;60.90;;;;;;5071252;28;20449;-80
2023/06/26 06:47:05;;;;;;;14.90;10.30;;;26.70;61.40;;;;;;5085407;28;20867;-79
2023/06/26 06:49:33;;;;;;;13.70;9.33;;;26.50;61.80;;;;;;5070064;28;20456;-81
2023/06/26 06:52:01;;;;;;;12.53;9.10;;;26.30;62.40;;;;;;5064497;28;20442;-78
2023/06/26 06:54:29;;;;;;;13.37;9.40;;;26.10;62.80;;;;;;5088655;28;20888;-81
2023/06/26 06:56:58;;;;;;;13.13;9.67;;;26.00;63.10;;;;;;5085872;28;20457;-81
2023/06/26 06:59:26;;;;;;;11.63;9.10;;;25.80;63.50;;;;;;5084692;28;20449;-80
2023/06/26 07:01:55;;;;;;;13.43;9.30;;;25.70;63.80;;;;;;5082278;28;20807;-79
2023/06/26 07:04:24;;;;;;;15.50;9.90;;;25.60;64.10;;;;;;5069846;28;20880;-78
2023/06/26 07:06:52;;;;;;;17.83;9.80;;;25.60;64.40;;;;;;5087192;28;21358;-80
2023/06/26 07:09:21;;;;;;;12.50;9.13;;;25.50;64.60;;;;;;5082620;28;20550;-79
2023/06/26 07:11:50;;;;;;;13.77;10.40;;;25.40;64.70;;;;;;5085093;28;20506;-80
2023/06/26 07:14:20;;;;;;;12.30;9.43;;;25.40;65.00;;;;;;5085538;28;20944;-79
2023/06/26 07:16:49;;;;;;;11.90;9.47;;;25.30;65.10;;;;;;5082970;28;20455;-80
2023/06/26 07:19:18;;;;;;;12.53;9.50;;;25.30;65.20;;;;;;5065467;28;20510;-79
2023/06/26 07:21:47;;;;;;;12.47;9.57;;;25.30;65.30;;;;;;5082156;28;20459;-81
2023/06/26 07:24:15;;;;;;;12.70;9.23;;;25.30;65.40;;;;;;5081056;28;21310;-78
2023/06/26 07:26:43;;;;;;;12.83;8.97;;;25.30;65.40;;;;;;5065027;28;20874;-79
2023/06/26 07:29:14;;;;;;;13.43;9.53;;;25.30;65.60;;;;;;5083314;28;20460;-79
2023/06/26 07:31:45;;;;;;;12.43;9.20;;;25.30;65.70;;;;;;5086088;28;20469;-81
2023/06/26 07:34:13;;;;;;;11.77;9.03;;;25.30;65.80;;;;;;5078517;28;21018;-81
2023/06/26 07:36:41;;;;;;;14.17;9.50;;;25.30;65.90;;;;;;5079686;28;20468;-80
2023/06/26 07:39:09;;;;;;;12.27;10.07;;;25.30;65.90;;;;;;5071861;28;20467;-80
2023/06/26 07:41:42;;;;;;;15.37;9.80;;;25.30;66.00;;;;;;5083043;28;20452;-79
2023/06/26 07:44:10;;;;;;;12.40;8.63;;;25.40;66.00;;;;;;5086680;28;21127;-80
2023/06/26 07:46:37;;;;;;;12.07;9.20;;;25.50;66.10;;;;;;5071227;28;20457;-79
2023/06/26 07:49:07;;;;;;;13.47;9.37;;;25.50;66.10;;;;;;5085702;28;20519;-79
2023/06/26 07:51:35;;;;;;;13.83;8.50;;;25.60;66.10;;;;;;5085721;28;20809;-78
2023/06/26 07:54:03;;;;;;;12.77;8.40;;;25.70;65.80;;;;;;5087494;28;20452;-80
2023/06/26 07:56:31;;;;;;;17.20;10.70;;;25.80;65.80;;;;;;5079818;28;20935;-80
2023/06/26 07:59:00;;;;;;;13.73;9.47;;;25.80;65.60;;;;;;5082059;28;20449;-80
2023/06/26 08:01:28;;;;;;;16.70;10.50;;;25.90;65.60;;;;;;5062021;28;20539;-80
2023/06/26 08:03:56;;;;;;;14.80;9.77;;;25.90;65.50;;;;;;5081642;28;20575;-81
2023/06/26 08:06:25;;;;;;;12.10;9.43;;;26.00;65.30;;;;;;5085449;28;20457;-81
2023/06/26 08:08:53;;;;;;;12.83;9.17;;;26.00;65.00;;;;;;5086115;28;20544;-81
2023/06/26 08:11:21;;;;;;;14.13;8.40;;;26.10;64.90;;;;;;5069212;28;20951;-80
2023/06/26 08:13:49;;;;;;;13.67;8.70;;;26.10;64.80;;;;;;5078870;28;20913;-79
2023/06/26 08:16:17;;;;;;;11.20;9.03;;;26.20;64.50;;;;;;5068435;28;20453;-79
2023/06/26 08:18:45;;;;;;;11.70;9.10;;;26.20;64.40;;;;;;5086329;28;20958;-80
2023/06/26 08:21:13;;;;;;;13.90;9.40;;;26.30;64.30;;;;;;5086753;28;20440;-80
2023/06/26 08:23:42;;;;;;;16.40;10.03;;;26.30;64.30;;;;;;5070059;28;20465;-78
2023/06/26 08:26:10;;;;;;;13.73;8.60;;;26.40;64.40;;;;;;5069233;28;20532;-79
2023/06/26 08:28:38;;;;;;;13.53;8.93;;;26.30;64.50;;;;;;5086633;28;20461;-80
2023/06/26 08:31:06;;;;;;;11.47;8.23;;;26.40;64.40;;;;;;5081709;28;20476;-79
2023/06/26 08:33:35;;;;;;;12.17;8.70;;;26.40;64.30;;;;;;5086081;28;20498;-80
2023/06/26 08:36:03;;;;;;;13.80;9.07;;;26.50;64.30;;;;;;5078461;28;20815;-80
2023/06/26 08:38:31;;;;;;;11.43;8.63;;;26.50;64.20;;;;;;5089073;28;20499;-79
2023/06/26 08:41:00;;;;;;;12.30;9.33;;;26.60;64.20;;;;;;5077644;28;20454;-81
2023/06/26 08:43:28;;;;;;;12.27;8.30;;;26.60;64.20;;;;;;5068201;28;20505;-80
2023/06/26 08:45:56;;;;;;;11.90;8.90;;;26.60;64.10;;;;;;5084128;28;20476;-79
2023/06/26 08:48:26;;;;;;;12.50;9.23;;;26.70;64.10;;;;;;5068320;28;20463;-78
2023/06/26 08:50:56;;;;;;;13.23;8.60;;;26.70;64.00;;;;;;5078585;28;20457;-78
2023/06/26 08:53:34;;;;;;;11.33;8.27;;;26.80;63.90;;;;;;5087443;28;20812;-81
2023/06/26 08:56:04;;;;;;;12.77;8.90;;;26.90;63.60;;;;;;5087663;28;20471;-80
2023/06/26 08:58:33;;;;;;;13.00;8.70;;;26.90;63.60;;;;;;5088923;28;20485;-78
2023/06/26 09:01:02;;;;;;;15.07;9.60;;;26.90;63.50;;;;;;5086360;28;20569;-79
2023/06/26 09:03:31;;;;;;;12.77;9.10;;;27.00;63.30;;;;;;5088010;28;20477;-80
2023/06/26 09:05:59;;;;;;;11.37;9.03;;;27.00;63.00;;;;;;5082626;28;20440;-81
2023/06/26 09:08:27;;;;;;;13.73;9.07;;;27.00;63.10;;;;;;5083824;28;20459;-79
2023/06/26 09:10:55;;;;;;;12.57;9.27;;;27.10;62.90;;;;;;5087962;28;20892;-80
2023/06/26 09:13:25;;;;;;;12.43;7.73;;;27.20;62.80;;;;;;5081336;28;20449;-79
2023/06/26 09:16:17;;;;;;;12.30;8.60;;;27.20;62.70;;;;;;5088011;28;20543;-79
2023/06/26 09:18:46;;;;;;;13.57;9.20;;;27.30;62.30;;;;;;5059702;28;20461;-79
2023/06/26 09:21:15;;;;;;;11.63;8.30;;;27.30;62.40;;;;;;5083372;28;21147;-79
2023/06/26 09:23:44;;;;;;;12.53;8.70;;;27.40;62.10;;;;;;5086011;28;20476;-81
2023/06/26 09:26:12;;;;;;;13.57;8.50;;;27.40;62.00;;;;;;5090525;28;20504;-78
2023/06/26 09:28:43;;;;;;;11.27;7.90;;;27.50;61.80;;;;;;5083285;28;20454;-80
2023/06/26 09:31:11;;;;;;;10.90;8.20;;;27.50;61.50;;;;;;5091021;28;20507;-80
2023/06/26 09:33:42;;;;;;;11.30;8.20;;;27.60;61.50;;;;;;5093447;28;20453;-81
2023/06/26 09:36:20;;;;;;;13.27;7.70;;;27.70;61.20;;;;;;5088756;28;20532;-80
2023/06/26 09:38:48;;;;;;;10.90;8.13;;;27.70;60.70;;;;;;5083023;28;20482;-79
2023/06/26 09:41:17;;;;;;;13.03;8.27;;;27.70;60.20;;;;;;5085173;28;20463;-79
2023/06/26 09:43:51;;;;;;;12.50;7.60;;;27.80;59.90;;;;;;5069954;28;20504;-80
2023/06/26 09:46:26;;;;;;;12.00;7.80;;;27.80;59.80;;;;;;5073411;28;20479;-79
2023/06/26 09:49:00;;;;;;;11.83;7.30;;;27.80;59.40;;;;;;5087924;28;20536;-79
2023/06/26 09:51:30;;;;;;;12.10;7.60;;;27.90;59.20;;;;;;5089652;28;20448;-79
2023/06/26 09:53:58;;;;;;;9.90;6.50;;;27.90;59.20;;;;;;5089611;28;20464;-78
2023/06/26 09:56:28;;;;;;;10.67;7.20;;;27.90;59.10;;;;;;5085928;28;20547;-78
2023/06/26 09:58:58;;;;;;;10.27;6.97;;;28.00;59.20;;;;;;5089078;28;20552;-80
2023/06/26 10:01:27;;;;;;;10.67;6.90;;;28.10;59.00;;;;;;5068645;28;21120;-80
2023/06/26 10:03:56;;;;;;;9.40;6.50;;;28.10;58.60;;;;;;5085281;28;20472;-79
2023/06/26 10:06:29;;;;;;;9.30;6.43;;;28.20;58.20;;;;;;5082522;28;20465;-80
2023/06/26 10:08:59;;;;;;;10.60;6.67;;;28.20;58.70;;;;;;5077407;28;20463;-79
2023/06/26 10:11:33;;;;;;;11.83;7.30;;;28.20;58.60;;;;;;5088330;28;20453;-78
2023/06/26 10:14:05;;;;;;;11.27;7.47;;;28.30;58.60;;;;;;5088181;28;20450;-81
2023/06/26 10:16:47;;;;;;;10.60;7.07;;;28.30;58.30;;;;;;5085880;28;20823;-81
2023/06/26 10:19:18;;;;;;;10.10;7.47;;;28.30;58.20;;;;;;5085477;28;20533;-79
2023/06/26 10:21:47;;;;;;;10.87;7.63;;;28.30;58.40;;;;;;5066167;28;20456;-80
2023/06/26 10:24:15;;;;;;;10.63;7.33;;;28.40;58.50;;;;;;5080619;28;20474;-79
2023/06/26 10:26:46;;;;;;;10.93;7.73;;;28.50;58.70;;;;;;5070853;28;20448;-79
2023/06/26 10:29:18;;;;;;;10.80;8.30;;;28.50;58.70;;;;;;5085554;28;20464;-80
2023/06/26 10:31:50;;;;;;;11.63;8.53;;;28.60;58.80;;;;;;5082237;28;20491;-80
2023/06/26 10:34:18;;;;;;;12.17;8.20;;;28.60;58.70;;;;;;5085175;28;20467;-81
2023/06/26 10:36:48;;;;;;;12.50;9.10;;;28.60;58.60;;;;;;5088266;28;20444;-80
2023/06/26 10:39:16;;;;;;;12.10;7.93;;;28.70;58.50;;;;;;5071624;28;20496;-79
2023/06/26 10:41:44;;;;;;;11.10;7.60;;;28.70;58.80;;;;;;5086382;28;20452;-79
2023/06/26 10:44:41;;;;;;;10.50;7.77;;;28.80;58.80;;;;;;5085925;28;20477;-79
2023/06/26 10:47:09;;;;;;;11.83;8.00;;;28.90;58.20;;;;;;5084746;28;20456;-80
2023/06/26 10:49:39;;;;;;;10.40;7.20;;;28.90;57.80;;;;;;5085110;28;20543;-80
2023/06/26 10:52:07;;;;;;;13.10;7.47;;;28.90;57.80;;;;;;5068899;28;20822;-81
2023/06/26 10:54:38;;;;;;;10.90;6.93;;;28.90;58.00;;;;;;5081554;28;20468;-80
2023/06/26 10:57:08;;;;;;;13.93;8.17;;;28.90;58.00;;;;;;5081630;28;20453;-79
2023/06/26 10:59:40;;;;;;;9.97;6.70;;;28.90;57.60;;;;;;5084998;28;20982;-81
2023/06/26 11:02:08;;;;;;;9.33;7.17;;;28.90;57.80;;;;;;5074027;28;20477;-79
2023/06/26 11:04:40;;;;;;;9.43;6.27;;;29.00;57.80;;;;;;5079337;28;21246;-80
2023/06/26 11:07:20;;;;;;;8.63;6.27;;;29.00;57.80;;;;;;5062093;28;20998;-81
2023/06/26 11:09:58;;;;;;;10.70;6.77;;;29.00;57.50;;;;;;5084897;28;20539;-78
2023/06/26 11:12:37;;;;;;;11.87;7.07;;;29.00;57.40;;;;;;5084622;28;20452;-80
2023/06/26 11:24:00;;;;;;;10.27;6.53;;;29.00;57.60;;;;;;5076362;28;20498;-80
2023/06/26 11:26:28;;;;;;;8.73;6.47;;;29.00;57.50;;;;;;5082890;28;20481;-80
2023/06/26 11:28:57;;;;;;;10.00;7.37;;;28.90;57.40;;;;;;5077244;28;20488;-78
2023/06/26 11:31:31;;;;;;;16.40;6.43;;;28.90;57.30;;;;;;5073386;28;20465;-79
2023/06/26 11:34:00;;;;;;;12.10;7.60;;;28.90;57.40;;;;;;5086759;28;20440;-80
2023/06/26 11:36:28;;;;;;;10.00;7.30;;;28.90;57.60;;;;;;5084518;28;20453;-79
2023/06/26 11:38:58;;;;;;;13.23;7.90;;;28.90;57.90;;;;;;5083268;28;20459;-80
2023/06/26 11:41:28;;;;;;;9.70;7.17;;;29.00;58.00;;;;;;5067899;28;20826;-80
2023/06/26 11:51:56;;;;;;;12.67;8.77;;;29.00;57.90;;;;;;5084235;28;20787;-78
2023/06/26 11:54:29;;;;;;;13.10;9.30;;;28.90;57.80;;;;;;5084279;28;20878;-78
2023/06/26 11:56:58;;;;;;;11.10;9.00;;;29.00;57.90;;;;;;5068941;28;20457;-81
2023/06/26 11:59:35;;;;;;;12.13;9.40;;;29.00;58.10;;;;;;5070092;28;20468;-80
2023/06/26 12:02:07;;;;;;;12.97;9.10;;;29.10;58.20;;;;;;5087695;28;20563;-78
2023/06/26 12:04:36;;;;;;;14.10;9.10;;;29.10;58.10;;;;;;5087119;28;20453;-79
2023/06/26 12:07:08;;;;;;;11.63;9.60;;;29.20;58.10;;;;;;5071193;28;21130;-78
2023/06/26 12:09:41;;;;;;;12.90;9.13;;;29.20;58.30;;;;;;5085758;28;20457;-81
2023/06/26 12:12:10;;;;;;;12.47;9.37;;;29.20;58.40;;;;;;5085596;28;20545;-80
2023/06/26 12:14:40;;;;;;;12.27;9.17;;;29.30;58.10;;;;;;5069172;28;20449;-78
2023/06/26 12:17:11;;;;;;;13.67;10.20;;;29.20;58.10;;;;;;5087075;28;20456;-80
2023/06/26 12:19:39;;;;;;;13.37;10.07;;;29.20;58.10;;;;;;5073096;28;20465;-81
2023/06/26 12:22:08;;;;;;;12.10;9.53;;;29.20;58.00;;;;;;5079632;28;20733;-80
2023/06/26 12:24:38;;;;;;;13.57;9.27;;;29.30;58.10;;;;;;5081047;28;20463;-79
2023/06/26 12:27:11;;;;;;;13.37;10.20;;;29.30;58.10;;;;;;5077933;28;20452;-81
2023/06/26 12:29:40;;;;;;;10.93;9.23;;;29.30;57.80;;;;;;5083036;28;20459;-81
2023/06/26 12:32:12;;;;;;;13.23;9.37;;;29.20;58.00;;;;;;5079949;28;20481;-81
2023/06/26 12:34:40;;;;;;;11.90;9.20;;;29.20;58.10;;;;;;5085994;28;20461;-80
2023/06/26 12:37:11;;;;;;;17.37;9.53;;;29.30;58.20;;;;;;5088446;28;20446;-81
2023/06/26 12:39:50;;;;;;;12.97;9.97;;;29.30;58.30;;;;;;5088892;28;20471;-81
2023/06/26 12:42:20;;;;;;;13.97;8.57;;;29.30;58.40;;;;;;5075438;28;20531;-79
2023/06/26 12:44:48;;;;;;;12.30;9.10;;;29.30;58.30;;;;;;5087821;28;20463;-78
2023/06/26 12:47:19;;;;;;;12.90;9.30;;;29.30;58.50;;;;;;5073595;28;20558;-80
2023/06/26 12:49:52;;;;;;;14.67;9.00;;;29.30;58.30;;;;;;5069884;28;20453;-80
2023/06/26 12:52:23;;;;;;;11.93;8.60;;;29.20;58.40;;;;;;5080237;28;20555;-80
2023/06/26 12:54:53;;;;;;;12.43;9.23;;;29.20;58.50;;;;;;5087894;28;20448;-80
2023/06/26 12:57:24;;;;;;;11.27;9.20;;;29.20;58.50;;;;;;5090413;28;20506;-81
2023/06/26 12:59:52;;;;;;;12.03;8.70;;;29.10;58.50;;;;;;5085224;28;20462;-79
2023/06/26 13:02:20;;;;;;;12.90;8.83;;;29.10;58.70;;;;;;5083967;28;20524;-79
2023/06/26 13:04:48;;;;;;;13.80;8.47;;;29.10;59.00;;;;;;5089645;28;20510;-78